Time;durP1;ratioP1;P1;durP2;ratioP2;P2;SDS_P1;SDS_P2;PMS_P1;PMS_P2;Temp;Humidity;BMP_temperature;BMP_pressure;BME280_temperature;BME280_humidity;BME280_pressure;Samples;Min_cycle;Max_cycle;Signal;HPM_P1;HPM_P2
2023/12/18 00:01:03;;;;;;;14.93;8.50;;;;;;;4.62;100.00;102449.31;7398609;19;20018;-68
2023/12/18 00:03:32;;;;;;;12.73;8.35;;;;;;;4.62;100.00;102451.03;7397204;19;20011;-68
2023/12/18 00:06:00;;;;;;;13.50;8.95;;;;;;;4.62;100.00;102451.03;7397950;19;20014;-68
2023/12/18 00:08:29;;;;;;;13.98;9.38;;;;;;;4.61;100.00;102450.13;7397878;19;20010;-68
2023/12/18 00:11:00;;;;;;;14.15;9.18;;;;;;;4.60;100.00;102443.19;7397124;19;20078;-68
2023/12/18 00:13:35;;;;;;;17.58;9.80;;;;;;;4.58;100.00;102442.25;7397301;19;20063;-69
2023/12/18 00:16:04;;;;;;;14.27;9.75;;;;;;;4.59;100.00;102446.63;7398672;19;20070;-72
2023/12/18 00:18:32;;;;;;;14.00;9.35;;;;;;;4.55;100.00;102448.25;7397752;19;20085;-77
2023/12/18 00:21:00;;;;;;;15.40;9.35;;;;;;;4.56;100.00;102447.41;7398384;19;20002;-68
2023/12/18 00:23:29;;;;;;;14.50;9.60;;;;;;;4.56;100.00;102436.13;7396112;19;20035;-68
2023/12/18 00:26:00;;;;;;;14.10;9.88;;;;;;;4.53;100.00;102430.84;7397639;19;20003;-68
2023/12/18 00:28:28;;;;;;;16.27;9.85;;;;;;;4.52;100.00;102426.47;7398118;19;20074;-68
2023/12/18 00:30:57;;;;;;;14.07;10.07;;;;;;;4.51;100.00;102427.31;7396871;19;20074;-67
2023/12/18 00:33:26;;;;;;;15.40;9.55;;;;;;;4.50;100.00;102420.34;7396088;19;20028;-68
2023/12/18 00:35:54;;;;;;;18.00;10.02;;;;;;;4.50;100.00;102409.94;7396947;19;20017;-68
2023/12/18 00:38:23;;;;;;;16.65;10.88;;;;;;;4.47;100.00;102417.66;7396919;19;20074;-68
2023/12/18 00:40:51;;;;;;;15.13;9.82;;;;;;;4.46;100.00;102413.28;7396888;19;20422;-67
2023/12/18 00:43:22;;;;;;;15.82;10.15;;;;;;;4.45;100.00;102416.72;7396311;19;20094;-68
2023/12/18 00:45:50;;;;;;;16.58;10.50;;;;;;;4.44;100.00;102407.19;7396619;19;20070;-68
2023/12/18 00:48:19;;;;;;;17.17;10.60;;;;;;;4.42;100.00;102411.44;7400225;19;20545;-68
2023/12/18 00:50:47;;;;;;;15.15;10.15;;;;;;;4.40;100.00;102403.59;7396584;19;20497;-69
2023/12/18 00:53:16;;;;;;;15.20;10.70;;;;;;;4.38;100.00;102400.06;7396119;19;20031;-68
2023/12/18 00:55:45;;;;;;;17.95;11.02;;;;;;;4.36;100.00;102401.72;7396718;19;20017;-68
2023/12/18 00:58:13;;;;;;;17.45;11.45;;;;;;;4.33;100.00;102399.03;7396765;19;20081;-68
2023/12/18 01:00:44;;;;;;;21.40;12.15;;;;;;;4.32;100.00;102405.06;7396593;19;20082;-68
2023/12/18 01:03:13;;;;;;;17.02;10.55;;;;;;;4.30;100.00;102401.56;7395958;19;20082;-68
2023/12/18 01:05:41;;;;;;;19.02;11.43;;;;;;;4.28;100.00;102403.22;7396469;19;20078;-68
2023/12/18 01:08:10;;;;;;;18.98;12.25;;;;;;;4.27;100.00;102404.03;7396386;19;20083;-68
2023/12/18 01:10:39;;;;;;;21.73;12.10;;;;;;;4.22;100.00;102407.41;7396341;19;20082;-68
2023/12/18 01:13:29;;;;;;;18.88;12.00;;;;;;;4.20;100.00;102416.84;7394990;19;20366;-67
2023/12/18 01:16:06;;;;;;;19.65;12.55;;;;;;;4.20;100.00;102413.38;7396275;19;20087;-68
2023/12/18 01:18:40;;;;;;;22.60;12.70;;;;;;;4.18;100.00;102420.22;7396047;19;20097;-68
2023/12/18 01:21:09;;;;;;;18.88;12.52;;;;;;;4.16;100.00;102414.13;7396409;19;20074;-68
2023/12/18 01:23:37;;;;;;;18.88;12.15;;;;;;;4.16;100.00;102421.91;7394956;19;20070;-68
2023/12/18 01:26:06;;;;;;;23.88;13.43;;;;;;;4.14;100.00;102415.78;7395856;19;20078;-67
2023/12/18 01:28:34;;;;;;;20.65;13.38;;;;;;;4.13;100.00;102406.22;7394146;19;20011;-68
2023/12/18 01:31:06;;;;;;;22.10;12.25;;;;;;;4.11;100.00;102405.28;7395400;19;20074;-68
2023/12/18 01:33:34;;;;;;;23.58;13.27;;;;;;;4.10;100.00;102406.13;7392473;19;20015;-67
2023/12/18 01:36:03;;;;;;;22.35;13.20;;;;;;;4.07;100.00;102410.38;7395228;19;20078;-69
2023/12/18 01:38:31;;;;;;;20.17;13.80;;;;;;;4.07;100.00;102410.38;7395261;19;20427;-68
2023/12/18 01:40:59;;;;;;;21.58;14.15;;;;;;;4.06;100.00;102400.81;7395519;19;20090;-69
2023/12/18 01:43:29;;;;;;;22.40;14.75;;;;;;;4.05;100.00;102398.19;7394523;19;20074;-68
2023/12/18 01:46:00;;;;;;;23.00;13.98;;;;;;;4.05;100.00;102393.84;7394889;19;20509;-68
2023/12/18 01:48:32;;;;;;;25.77;14.05;;;;;;;4.03;100.00;102387.75;7395430;19;20368;-68
2023/12/18 01:51:02;;;;;;;25.48;15.73;;;;;;;4.04;100.00;102393.81;7393842;19;20070;-68
2023/12/18 01:53:34;;;;;;;26.08;16.33;;;;;;;4.04;100.00;102396.41;7394172;19;20066;-68
2023/12/18 01:56:04;;;;;;;25.50;14.77;;;;;;;4.02;100.00;102385.97;7395524;19;20086;-69
2023/12/18 01:58:35;;;;;;;28.00;15.95;;;;;;;4.01;100.00;102389.41;7395127;19;20099;-68
2023/12/18 02:01:04;;;;;;;31.20;16.92;;;;;;;4.02;100.00;102374.69;7395314;19;20018;-68
2023/12/18 02:03:37;;;;;;;28.27;16.80;;;;;;;4.00;100.00;102369.47;7393840;19;20024;-68
2023/12/18 02:06:07;;;;;;;24.73;16.15;;;;;;;4.00;100.00;102369.47;7395274;19;20086;-68
2023/12/18 02:08:35;;;;;;;28.23;17.65;;;;;;;4.01;100.00;102372.97;7394823;19;20078;-68
2023/12/18 02:11:04;;;;;;;27.58;16.45;;;;;;;4.00;100.00;102372.06;7394147;19;20548;-68
2023/12/18 02:13:32;;;;;;;29.15;17.42;;;;;;;3.99;100.00;102375.47;7393912;19;20090;-68
2023/12/18 02:16:01;;;;;;;30.77;17.60;;;;;;;3.99;100.00;102370.28;7392226;19;20422;-69
2023/12/18 02:18:29;;;;;;;30.52;17.10;;;;;;;3.99;100.00;102372.00;7394538;19;20031;-68
2023/12/18 02:21:00;;;;;;;27.33;16.67;;;;;;;3.98;100.00;102370.25;7392602;19;20019;-68
2023/12/18 02:23:31;;;;;;;30.17;16.48;;;;;;;3.98;100.00;102368.53;7393499;19;20085;-68
2023/12/18 02:25:59;;;;;;;33.72;19.33;;;;;;;3.98;100.00;102378.03;7394732;19;20086;-68
2023/12/18 02:28:29;;;;;;;35.75;18.90;;;;;;;3.98;100.00;102376.34;7394259;19;20014;-68
2023/12/18 02:30:57;;;;;;;26.45;15.80;;;;;;;3.97;100.00;102376.25;7394086;19;20010;-68
2023/12/18 02:33:26;;;;;;;33.30;16.98;;;;;;;3.96;100.00;102372.81;7391914;19;20088;-68
2023/12/18 02:35:55;;;;;;;30.10;17.42;;;;;;;3.97;100.00;102373.66;7393644;19;20423;-68
2023/12/18 02:38:23;;;;;;;28.23;18.17;;;;;;;3.96;100.00;102364.13;7393563;19;20070;-68
2023/12/18 02:40:54;;;;;;;29.08;18.33;;;;;;;3.95;100.00;102377.94;7393843;19;20418;-68
2023/12/18 02:43:22;;;;;;;31.02;17.00;;;;;;;3.94;100.00;102364.06;7393110;19;20025;-68
2023/12/18 02:45:51;;;;;;;27.48;17.52;;;;;;;3.93;100.00;102359.72;7396540;19;20069;-68
2023/12/18 02:48:19;;;;;;;27.77;17.38;;;;;;;3.90;100.00;102368.31;7402389;19;20011;-69
2023/12/18 02:50:48;;;;;;;30.40;16.48;;;;;;;3.89;100.00;102363.94;7399276;19;20018;-69
2023/12/18 02:53:17;;;;;;;28.38;17.58;;;;;;;3.87;100.00;102370.78;7398528;19;20066;-68
2023/12/18 02:55:46;;;;;;;30.67;18.23;;;;;;;3.86;100.00;102363.81;7400387;19;20476;-68
2023/12/18 02:58:18;;;;;;;29.60;17.75;;;;;;;3.84;100.00;102368.09;7400438;19;20184;-68
2023/12/18 03:00:46;;;;;;;34.78;17.35;;;;;;;3.83;100.00;102365.44;7397757;19;20010;-68
2023/12/18 03:03:14;;;;;;;29.73;18.17;;;;;;;3.81;100.00;102370.59;7399404;19;20066;-68
2023/12/18 03:05:43;;;;;;;30.92;18.63;;;;;;;3.78;100.00;102370.50;7400085;19;20077;-68
2023/12/18 03:08:11;;;;;;;30.05;17.88;;;;;;;3.78;100.00;102374.78;7400032;19;20510;-68
2023/12/18 03:10:40;;;;;;;27.70;17.33;;;;;;;3.75;100.00;102371.28;7400278;19;20074;-68
2023/12/18 03:13:08;;;;;;;27.08;16.48;;;;;;;3.74;100.00;102373.81;7403477;19;20031;-68
2023/12/18 03:15:39;;;;;;;30.77;18.58;;;;;;;3.71;100.00;102360.75;7399983;19;20074;-68
2023/12/18 03:18:08;;;;;;;30.95;17.88;;;;;;;3.70;100.00;102358.97;7400406;19;20027;-68
2023/12/18 03:20:36;;;;;;;31.05;18.05;;;;;;;3.69;100.00;102354.59;7397740;19;20077;-68
2023/12/18 03:23:05;;;;;;;37.65;18.95;;;;;;;3.67;100.00;102351.09;7399008;19;20080;-68
2023/12/18 03:25:33;;;;;;;31.75;19.10;;;;;;;3.66;100.00;102347.59;7399421;19;20489;-67
2023/12/18 03:28:01;;;;;;;33.78;19.60;;;;;;;3.66;100.00;102346.72;7399720;19;20089;-68
2023/12/18 03:30:30;;;;;;;33.42;17.55;;;;;;;3.65;100.00;102351.06;7399549;19;20074;-68
2023/12/18 03:33:01;;;;;;;29.38;17.85;;;;;;;3.65;100.00;102350.16;7397977;19;20049;-68
2023/12/18 03:35:30;;;;;;;30.05;18.60;;;;;;;3.63;100.00;102355.31;7397564;19;20015;-67
2023/12/18 03:37:58;;;;;;;30.05;17.58;;;;;;;3.62;100.00;102356.13;7399015;19;20078;-67
2023/12/18 03:40:26;;;;;;;31.92;18.17;;;;;;;3.63;100.00;102360.50;7399176;19;20031;-68
2023/12/18 03:42:55;;;;;;;34.35;19.17;;;;;;;3.61;100.00;102363.88;7398384;19;20082;-68
2023/12/18 03:45:23;;;;;;;30.13;18.55;;;;;;;3.59;100.00;102353.44;7399165;19;20086;-67
2023/12/18 03:47:52;;;;;;;32.55;18.30;;;;;;;3.59;100.00;102362.09;7399296;19;20090;-67
2023/12/18 03:50:23;;;;;;;32.65;19.38;;;;;;;3.59;100.00;102363.84;7398984;19;20022;-67
2023/12/18 03:52:51;;;;;;;36.13;19.73;;;;;;;3.55;100.00;102360.25;7396978;19;20420;-67
2023/12/18 03:55:20;;;;;;;30.58;18.95;;;;;;;3.52;100.00;102359.25;7398448;19;20010;-67
2023/12/18 03:57:45;;;;;;;30.13;18.45;;;;;;;3.53;100.00;102382.66;7396849;19;20052;-68
2023/12/18 04:00:15;;;;;;;36.38;19.80;;;;;;;3.54;100.00;102386.16;7398250;19;20024;-68
2023/12/18 04:02:44;;;;;;;31.52;18.88;;;;;;;3.54;100.00;102387.03;7397977;19;20089;-68
2023/12/18 04:05:12;;;;;;;29.55;17.90;;;;;;;3.54;100.00;102400.00;7398438;19;20074;-68
2023/12/18 04:07:43;;;;;;;33.15;18.20;;;;;;;3.54;100.00;102389.63;7398114;19;20410;-68
2023/12/18 04:10:13;;;;;;;33.47;19.50;;;;;;;3.55;100.00;102388.78;7397936;19;20069;-68
2023/12/18 04:12:41;;;;;;;37.65;20.25;;;;;;;3.56;100.00;102394.84;7397087;19;20163;-68
2023/12/18 04:15:11;;;;;;;37.40;20.67;;;;;;;3.57;100.00;102389.72;7395676;19;20410;-68
2023/12/18 04:17:40;;;;;;;36.40;20.73;;;;;;;3.58;100.00;102377.63;7397665;19;20007;-67
2023/12/18 04:20:10;;;;;;;39.42;20.35;;;;;;;3.59;100.00;102384.59;7395412;19;20018;-69
2023/12/18 04:22:38;;;;;;;38.67;20.95;;;;;;;3.59;100.00;102384.59;7397578;19;20023;-67
2023/12/18 04:25:10;;;;;;;37.78;20.85;;;;;;;3.55;100.00;102368.03;7397634;19;20082;-68
2023/12/18 04:27:38;;;;;;;43.95;22.52;;;;;;;3.55;100.00;102368.03;7398003;19;20027;-68
2023/12/18 04:30:08;;;;;;;44.83;23.00;;;;;;;3.54;100.00;102368.84;7395418;19;20374;-68
2023/12/18 04:32:37;;;;;;;40.22;22.05;;;;;;;3.53;100.00;102368.81;7396584;19;20047;-68
2023/12/18 04:35:06;;;;;;;41.67;24.05;;;;;;;3.51;100.00;102367.88;7397302;19;20011;-68
2023/12/18 04:37:34;;;;;;;39.22;21.35;;;;;;;3.49;100.00;102374.72;7397562;19;20094;-68
2023/12/18 04:40:03;;;;;;;41.38;22.88;;;;;;;3.46;100.00;102362.50;7396592;19;20014;-68
2023/12/18 04:42:34;;;;;;;40.80;21.70;;;;;;;3.45;100.00;102367.66;7395022;19;20014;-68
2023/12/18 04:45:03;;;;;;;45.15;22.63;;;;;;;3.42;100.00;102366.75;7397339;19;20081;-68
2023/12/18 04:47:31;;;;;;;37.05;21.15;;;;;;;3.41;100.00;102370.16;7396693;19;20505;-68
2023/12/18 04:49:59;;;;;;;39.95;21.20;;;;;;;3.41;100.00;102364.06;7396974;19;20006;-69
2023/12/18 04:52:28;;;;;;;41.78;23.05;;;;;;;3.40;100.00;102354.56;7396173;19;20014;-68
2023/12/18 04:54:56;;;;;;;42.38;23.70;;;;;;;3.39;100.00;102352.78;7396449;19;20007;-69
2023/12/18 04:57:25;;;;;;;43.00;22.55;;;;;;;3.37;100.00;102347.50;7396505;19;20087;-68
2023/12/18 04:59:56;;;;;;;42.67;22.95;;;;;;;3.38;100.00;102338.03;7394430;19;20467;-68
2023/12/18 05:02:24;;;;;;;41.70;23.35;;;;;;;3.36;100.00;102345.78;7396509;19;20034;-68
2023/12/18 05:04:53;;;;;;;42.53;23.63;;;;;;;3.35;100.00;102344.00;7396997;19;20010;-69
2023/12/18 05:07:21;;;;;;;41.60;23.77;;;;;;;3.35;100.00;102350.88;7396123;19;20564;-68
2023/12/18 05:09:56;;;;;;;43.05;22.55;;;;;;;3.33;100.00;102350.84;7396073;19;20023;-68
2023/12/18 05:12:26;;;;;;;38.05;22.35;;;;;;;3.33;100.00;102356.03;7394734;19;20074;-69
2023/12/18 05:14:57;;;;;;;40.40;22.23;;;;;;;3.31;100.00;102357.72;7396258;19;20088;-69
2023/12/18 05:17:25;;;;;;;39.10;20.70;;;;;;;3.34;100.00;102357.81;7395317;19;20006;-68
2023/12/18 05:19:54;;;;;;;41.45;21.42;;;;;;;3.32;100.00;102362.03;7394463;19;20082;-68
2023/12/18 05:22:22;;;;;;;39.70;21.80;;;;;;;3.33;100.00;102353.44;7395071;19;20380;-69
2023/12/18 05:24:51;;;;;;;44.20;24.63;;;;;;;3.33;100.00;102349.97;7394956;19;20086;-68
2023/12/18 05:27:20;;;;;;;40.92;22.38;;;;;;;3.33;100.00;102349.97;7395333;19;20086;-68
2023/12/18 05:29:48;;;;;;;44.17;23.20;;;;;;;3.33;100.00;102355.16;7395027;19;20017;-68
2023/12/18 05:32:19;;;;;;;44.13;23.42;;;;;;;3.32;100.00;102359.44;7395185;19;20524;-69
2023/12/18 05:34:48;;;;;;;44.78;22.98;;;;;;;3.32;100.00;102366.38;7396780;19;20014;-69
2023/12/18 05:37:16;;;;;;;39.20;21.80;;;;;;;3.30;100.00;102368.91;7396119;19;20507;-69
2023/12/18 05:39:45;;;;;;;40.30;22.60;;;;;;;3.28;100.00;102373.16;7395528;19;20015;-68
2023/12/18 05:42:14;;;;;;;38.28;22.20;;;;;;;3.29;100.00;102380.13;7394148;19;20168;-68
2023/12/18 05:44:43;;;;;;;35.72;22.38;;;;;;;3.28;100.00;102374.88;7395232;19;20015;-68
2023/12/18 05:47:11;;;;;;;39.03;20.75;;;;;;;3.25;100.00;102380.84;7395569;19;20105;-66
2023/12/18 05:49:42;;;;;;;33.55;19.52;;;;;;;3.21;100.00;102384.13;7394452;19;20367;-68
2023/12/18 05:52:11;;;;;;;37.17;21.13;;;;;;;3.20;100.00;102390.19;7394435;19;20011;-68
2023/12/18 05:54:40;;;;;;;36.22;20.10;;;;;;;3.16;100.00;102385.69;7392341;19;20082;-68
2023/12/18 05:57:08;;;;;;;41.95;22.33;;;;;;;3.14;100.00;102384.78;7395173;19;20007;-70
2023/12/18 05:59:37;;;;;;;36.70;21.05;;;;;;;3.12;100.00;102389.00;7392538;19;20022;-69
2023/12/18 06:02:06;;;;;;;36.80;20.88;;;;;;;3.10;100.00;102394.16;7391894;19;20014;-69
2023/12/18 06:04:34;;;;;;;40.88;22.58;;;;;;;3.09;100.00;102394.97;7392349;19;20027;-68
2023/12/18 06:07:06;;;;;;;37.70;21.20;;;;;;;3.08;100.00;102403.56;7393706;19;20503;-69
2023/12/18 06:09:34;;;;;;;31.60;19.13;;;;;;;3.07;100.00;102400.13;7394611;19;20014;-68
2023/12/18 06:12:03;;;;;;;39.78;20.65;;;;;;;3.05;100.00;102403.47;7393918;19;20024;-69
2023/12/18 06:14:38;;;;;;;35.92;21.52;;;;;;;3.01;100.00;102399.88;7391457;19;20015;-71
2023/12/18 06:17:06;;;;;;;34.08;20.42;;;;;;;3.01;100.00;102406.78;7394071;19;20062;-70
2023/12/18 06:19:35;;;;;;;36.60;20.80;;;;;;;2.99;100.00;102411.91;7393302;19;20077;-69
2023/12/18 06:22:08;;;;;;;35.20;21.45;;;;;;;2.97;100.00;102400.63;7401050;19;20024;-70
2023/12/18 06:24:37;;;;;;;35.95;20.55;;;;;;;2.97;100.00;102418.75;7397819;19;20010;-69
2023/12/18 06:27:05;;;;;;;37.35;21.38;;;;;;;2.95;100.00;102411.75;7398116;19;20011;-69
2023/12/18 06:29:34;;;;;;;35.63;20.00;;;;;;;2.95;100.00;102416.94;7401478;19;20077;-68
2023/12/18 06:32:02;;;;;;;37.05;19.58;;;;;;;2.94;100.00;102421.22;7401529;19;20070;-68
2023/12/18 06:34:31;;;;;;;38.33;21.73;;;;;;;2.93;100.00;102422.03;7397848;19;20494;-68
2023/12/18 06:36:59;;;;;;;37.83;21.48;;;;;;;2.91;100.00;102423.72;7397943;19;20028;-68
2023/12/18 06:39:30;;;;;;;39.75;22.30;;;;;;;2.90;100.00;102424.53;7400819;19;20020;-68
2023/12/18 06:41:59;;;;;;;36.47;21.23;;;;;;;2.87;100.00;102422.72;7400943;19;20070;-69
2023/12/18 06:44:27;;;;;;;36.28;22.33;;;;;;;2.86;100.00;102418.34;7397969;19;20078;-69
2023/12/18 06:46:56;;;;;;;37.95;22.10;;;;;;;2.85;100.00;102423.50;7400474;19;20010;-68
2023/12/18 06:49:24;;;;;;;37.60;22.20;;;;;;;2.83;100.00;102423.44;7400824;19;20452;-68
2023/12/18 06:51:59;;;;;;;34.92;21.35;;;;;;;2.82;100.00;102423.38;7399933;19;20371;-69
2023/12/18 06:54:37;;;;;;;40.88;20.60;;;;;;;2.81;100.00;102429.41;7397141;19;20029;-68
2023/12/18 06:57:07;;;;;;;37.05;19.75;;;;;;;2.79;100.00;102423.25;7400133;19;20418;-68
2023/12/18 06:59:35;;;;;;;32.58;18.98;;;;;;;2.76;100.00;102424.91;7399859;19;20016;-69
2023/12/18 07:02:04;;;;;;;36.25;20.45;;;;;;;2.74;100.00;102416.22;7400217;19;20027;-69
2023/12/18 07:04:32;;;;;;;37.83;20.13;;;;;;;2.72;100.00;102415.25;7397649;19;20018;-69
2023/12/18 07:07:01;;;;;;;41.88;21.63;;;;;;;2.71;100.00;102416.06;7397387;19;20022;-68
2023/12/18 07:09:32;;;;;;;31.80;18.67;;;;;;;2.69;100.00;102417.75;7399761;19;20158;-68
2023/12/18 07:12:00;;;;;;;34.38;19.48;;;;;;;2.68;100.00;102415.97;7399497;19;20010;-68
2023/12/18 07:14:29;;;;;;;34.70;19.23;;;;;;;2.67;100.00;102426.28;7396724;19;20014;-69
2023/12/18 07:16:57;;;;;;;34.85;19.08;;;;;;;2.66;100.00;102434.88;7400049;19;20038;-68
2023/12/18 07:19:26;;;;;;;35.97;20.98;;;;;;;2.67;100.00;102436.66;7398847;19;20022;-69
2023/12/18 07:21:54;;;;;;;33.60;19.05;;;;;;;2.67;100.00;102444.44;7396831;19;20070;-68
2023/12/18 07:24:23;;;;;;;38.47;20.85;;;;;;;2.67;100.00;102444.44;7396688;19;20074;-69
2023/12/18 07:26:54;;;;;;;39.00;19.67;;;;;;;2.67;100.00;102447.03;7399634;19;20074;-68
2023/12/18 07:29:22;;;;;;;39.35;19.80;;;;;;;2.67;100.00;102450.47;7400055;19;20015;-68
2023/12/18 07:31:51;;;;;;;41.22;21.15;;;;;;;2.68;100.00;102460.03;7394296;19;20368;-68
2023/12/18 07:34:19;;;;;;;37.05;20.08;;;;;;;2.69;100.00;102461.81;7396845;19;20015;-67
2023/12/18 07:36:48;;;;;;;45.80;21.75;;;;;;;2.71;100.00;102454.94;7398906;19;20367;-68
2023/12/18 07:39:16;;;;;;;43.88;21.67;;;;;;;2.73;100.00;102457.59;7398566;19;20027;-69
2023/12/18 07:41:45;;;;;;;43.13;22.27;;;;;;;2.74;100.00;102460.28;7398783;19;20010;-69
2023/12/18 07:44:16;;;;;;;48.08;22.40;;;;;;;2.77;100.00;102455.19;7396996;19;20018;-69
2023/12/18 07:46:46;;;;;;;43.83;23.55;;;;;;;2.81;100.00;102465.69;7396537;19;20346;-68
2023/12/18 07:49:14;;;;;;;46.00;21.63;;;;;;;2.83;100.00;102456.25;7398798;19;20014;-69
2023/12/18 07:51:43;;;;;;;50.85;22.60;;;;;;;2.87;100.00;102460.72;7398211;19;20070;-68
2023/12/18 07:54:12;;;;;;;42.10;22.48;;;;;;;2.90;100.00;102458.25;7396662;19;20010;-68
2023/12/18 07:56:40;;;;;;;41.92;22.83;;;;;;;2.94;100.00;102460.13;7397184;19;20024;-67
2023/12/18 07:59:11;;;;;;;41.97;22.20;;;;;;;2.97;100.00;102462.84;7402541;19;20480;-68
2023/12/18 08:01:42;;;;;;;44.35;23.30;;;;;;;3.01;100.00;102461.22;7398858;19;20018;-68
2023/12/18 08:04:12;;;;;;;43.60;22.02;;;;;;;3.05;100.00;102466.59;7395706;19;20011;-69
2023/12/18 08:06:40;;;;;;;41.72;22.77;;;;;;;3.08;100.00;102464.13;7397841;19;20564;-70
2023/12/18 08:09:09;;;;;;;38.75;21.10;;;;;;;3.14;100.00;102462.59;7397684;19;20006;-69
2023/12/18 08:11:38;;;;;;;42.17;22.23;;;;;;;3.18;100.00;102459.25;7398207;19;20070;-69
2023/12/18 08:14:06;;;;;;;39.72;22.40;;;;;;;3.21;100.00;102464.53;7395768;19;20481;-69
2023/12/18 08:16:35;;;;;;;42.25;22.42;;;;;;;3.25;100.00;102467.31;7397751;19;20074;-69
2023/12/18 08:19:06;;;;;;;39.15;22.73;;;;;;;3.28;100.00;102466.53;7397645;19;20023;-69
2023/12/18 08:21:42;;;;;;;34.65;20.48;;;;;;;3.32;100.00;102463.22;7394522;19;20018;-69
2023/12/18 08:24:11;;;;;;;35.58;21.25;;;;;;;3.37;100.00;102456.47;7395125;19;20014;-69
2023/12/18 08:26:39;;;;;;;34.35;20.38;;;;;;;3.41;100.00;102457.47;7396884;19;20019;-68
2023/12/18 08:29:08;;;;;;;34.50;20.60;;;;;;;3.46;100.00;102462.84;7394925;19;20351;-68
2023/12/18 08:31:37;;;;;;;37.25;20.58;;;;;;;3.51;100.00;102466.47;7396204;19;20007;-69
2023/12/18 08:34:08;;;;;;;33.80;19.73;;;;;;;3.56;100.00;102464.94;7394889;19;20027;-68
2023/12/18 08:36:36;;;;;;;35.03;21.77;;;;;;;3.57;100.00;102459.78;7395929;19;20086;-68
2023/12/18 08:39:08;;;;;;;37.80;21.80;;;;;;;3.69;100.00;102467.13;7396354;19;20022;-69
2023/12/18 08:41:37;;;;;;;36.95;22.75;;;;;;;3.77;100.00;102461.28;7396336;19;20489;-68
2023/12/18 08:44:07;;;;;;;32.72;21.58;;;;;;;3.84;100.00;102458.09;7394564;19;20115;-68
2023/12/18 08:46:35;;;;;;;33.38;21.13;;;;;;;3.92;100.00;102456.66;7394470;19;20011;-68
2023/12/18 08:49:04;;;;;;;33.58;22.17;;;;;;;4.03;100.00;102459.56;7396212;19;20077;-69
2023/12/18 08:51:35;;;;;;;34.80;21.73;;;;;;;4.12;100.00;102462.50;7396411;19;20010;-69
2023/12/18 08:54:05;;;;;;;30.60;21.50;;;;;;;4.22;100.00;102450.66;7394869;19;20070;-69
2023/12/18 08:56:33;;;;;;;31.48;20.13;;;;;;;4.33;100.00;102449.28;7396624;19;20018;-68
2023/12/18 08:59:02;;;;;;;28.02;19.60;;;;;;;4.45;100.00;102442.72;7395933;19;20014;-68
2023/12/18 09:01:30;;;;;;;22.83;16.95;;;;;;;4.56;100.00;102442.22;7395203;19;20037;-68
2023/12/18 09:03:59;;;;;;;22.83;16.80;;;;;;;4.67;100.00;102444.25;7393853;19;20031;-68
2023/12/18 09:06:27;;;;;;;19.30;14.90;;;;;;;4.75;100.00;102428.88;7395333;19;20343;-68
2023/12/18 09:08:58;;;;;;;21.50;15.30;;;;;;;4.81;100.00;102431.66;7393554;19;20050;-68
2023/12/18 09:11:29;;;;;;;22.98;15.20;;;;;;;4.87;100.00;102426.66;7394983;19;20010;-68
2023/12/18 09:13:58;;;;;;;23.00;15.57;;;;;;;4.92;100.00;102430.25;7394014;19;20011;-67
2023/12/18 09:16:27;;;;;;;25.75;15.25;;;;;;;4.95;100.00;102424.25;7395650;19;20014;-67
2023/12/18 09:18:55;;;;;;;20.92;15.07;;;;;;;5.00;100.00;102431.34;7395304;19;20513;-67
2023/12/18 09:21:24;;;;;;;24.00;15.13;;;;;;;5.04;100.00;102428.00;7394123;19;20018;-67
2023/12/18 09:23:52;;;;;;;19.63;14.38;;;;;;;5.08;100.00;102422.88;7394494;19;20023;-67
2023/12/18 09:26:23;;;;;;;19.25;14.13;;;;;;;5.14;100.00;102425.66;7393976;19;20078;-69
2023/12/18 09:28:52;;;;;;;19.98;12.45;;;;;;;5.18;100.00;102430.09;7395702;19;20024;-68
2023/12/18 09:31:20;;;;;;;16.85;13.38;;;;;;;5.21;100.00;102409.38;7394751;19;20014;-68
2023/12/18 09:33:56;;;;;;;15.85;12.05;;;;;;;5.25;100.00;102419.03;7393650;19;20014;-68
2023/12/18 09:36:25;;;;;;;17.90;12.77;;;;;;;5.26;100.00;102415.59;7395832;19;20025;-67
2023/12/18 09:38:53;;;;;;;19.48;12.23;;;;;;;5.31;100.00;102416.59;7397396;19;20347;-68
2023/12/18 09:41:28;;;;;;;18.75;11.45;;;;;;;5.33;100.00;102417.53;7394908;19;20015;-68
2023/12/18 09:43:57;;;;;;;16.55;13.00;;;;;;;5.36;100.00;102435.81;7393940;19;20018;-68
2023/12/18 09:46:28;;;;;;;19.23;12.77;;;;;;;5.41;100.00;102425.53;7395460;19;20014;-68
2023/12/18 09:48:57;;;;;;;17.17;12.32;;;;;;;5.44;100.00;102436.00;7396597;19;20010;-68
2023/12/18 09:51:27;;;;;;;20.58;13.82;;;;;;;5.47;100.00;102430.00;7395321;19;20014;-68
2023/12/18 09:53:56;;;;;;;18.42;12.23;;;;;;;5.47;100.00;102430.00;7393851;19;20577;-68
2023/12/18 09:56:27;;;;;;;19.02;13.50;;;;;;;5.46;100.00;102425.63;7401879;19;20010;-68
2023/12/18 09:58:58;;;;;;;17.30;13.30;;;;;;;5.44;100.00;102407.38;7403184;19;20074;-68
2023/12/18 10:01:27;;;;;;;20.67;13.95;;;;;;;5.44;100.00;102414.31;7402187;19;20023;-68
2023/12/18 10:03:56;;;;;;;19.25;13.57;;;;;;;5.43;100.00;102410.81;7400200;19;20037;-68
2023/12/18 10:06:24;;;;;;;17.02;13.35;;;;;;;5.39;100.00;102402.03;7402261;19;20086;-67
2023/12/18 10:08:53;;;;;;;18.42;12.95;;;;;;;5.43;100.00;102407.34;7402318;19;20086;-68
2023/12/18 10:11:29;;;;;;;19.63;14.27;;;;;;;5.43;100.00;102378.72;7401356;19;20007;-67
2023/12/18 10:13:58;;;;;;;20.20;13.85;;;;;;;5.46;100.00;102400.50;7399813;19;20034;-68
2023/12/18 10:16:27;;;;;;;22.73;14.30;;;;;;;5.47;100.00;102389.25;7401105;19;20364;-67
2023/12/18 10:18:55;;;;;;;20.15;12.93;;;;;;;5.51;100.00;102395.41;7399112;19;20034;-67
2023/12/18 10:21:25;;;;;;;20.25;13.48;;;;;;;5.57;100.00;102395.56;7400182;19;20028;-67
2023/12/18 10:23:54;;;;;;;17.95;13.25;;;;;;;5.64;100.00;102389.66;7401839;19;20006;-67
2023/12/18 10:26:23;;;;;;;18.13;12.75;;;;;;;5.74;100.00;102369.06;7401534;19;20014;-67
2023/12/18 10:28:55;;;;;;;19.05;12.90;;;;;;;5.84;100.00;102365.84;7401152;19;20537;-67
2023/12/18 10:31:23;;;;;;;22.00;12.07;;;;;;;5.93;100.00;102360.84;7405451;19;20032;-67
2023/12/18 10:33:53;;;;;;;17.77;11.73;;;;;;;6.05;100.00;102362.88;7400647;19;20019;-66
2023/12/18 10:36:22;;;;;;;17.42;11.07;;;;;;;6.17;100.00;102368.38;7400962;19;20017;-67
2023/12/18 10:38:52;;;;;;;12.10;9.57;;;;;;;6.29;100.00;102370.41;7400838;19;20018;-67
2023/12/18 10:41:22;;;;;;;12.57;8.93;;;;;;;6.40;99.84;102364.53;7400818;19;20024;-67
2023/12/18 10:43:52;;;;;;;9.45;8.48;;;;;;;6.49;98.91;102367.31;7398999;19;20040;-68
2023/12/18 10:46:24;;;;;;;9.77;8.18;;;;;;;6.58;100.00;102361.44;7400296;19;20551;-68
2023/12/18 10:48:55;;;;;;;14.48;8.80;;;;;;;6.67;100.00;102374.66;7400588;19;20420;-67
2023/12/18 10:51:25;;;;;;;12.07;9.15;;;;;;;6.73;99.67;102364.34;7400047;19;20007;-67
2023/12/18 10:53:56;;;;;;;12.75;8.80;;;;;;;6.79;98.22;102351.44;7397984;19;20024;-68
2023/12/18 10:56:24;;;;;;;12.93;8.43;;;;;;;6.85;96.96;102348.94;7400206;19;20006;-68
2023/12/18 10:58:55;;;;;;;9.65;7.25;;;;;;;6.88;96.66;102358.56;7401370;19;20018;-67
2023/12/18 11:01:27;;;;;;;10.60;7.93;;;;;;;6.88;95.47;102350.72;7400005;19;20508;-68
2023/12/18 11:03:57;;;;;;;8.80;7.10;;;;;;;6.93;98.04;102346.47;7398608;19;20007;-68
2023/12/18 11:06:26;;;;;;;9.70;7.85;;;;;;;6.96;96.37;102346.56;7399935;19;20014;-68
2023/12/18 11:08:54;;;;;;;9.18;7.45;;;;;;;6.99;97.48;102351.81;7400074;19;20065;-68
2023/12/18 11:11:24;;;;;;;10.75;7.53;;;;;;;7.03;97.15;102336.19;7399916;19;20036;-68
2023/12/18 11:14:10;;;;;;;12.25;7.38;;;;;;;7.08;95.31;102331.97;7398315;19;20010;-68
2023/12/18 11:16:51;;;;;;;9.55;6.40;;;;;;;7.06;91.98;102329.31;7399293;19;20014;-68
2023/12/18 11:19:29;;;;;;;9.50;6.57;;;;;;;7.09;92.88;102324.16;7400134;19;20028;-69
2023/12/18 11:21:58;;;;;;;9.20;5.95;;;;;;;7.10;92.89;102327.63;7398626;19;20035;-69